sensor_id;sensor_type;location;lat;lon;timestamp;P1;durP1;ratioP1;P2;durP2;ratioP2
42194;SDS011;27863;49.440;11.102;2022-09-12T00:02:20;4.90;;;4.50;;
42194;SDS011;27863;49.440;11.102;2022-09-12T00:05:21;4.77;;;4.47;;
42194;SDS011;27863;49.440;11.102;2022-09-12T00:08:21;5.37;;;4.87;;
42194;SDS011;27863;49.440;11.102;2022-09-12T00:11:22;4.43;;;4.13;;
42194;SDS011;27863;49.440;11.102;2022-09-12T00:14:23;5.60;;;5.20;;
42194;SDS011;27863;49.440;11.102;2022-09-12T00:17:23;6.07;;;4.93;;
42194;SDS011;27863;49.440;11.102;2022-09-12T00:20:24;4.80;;;4.40;;
42194;SDS011;27863;49.440;11.102;2022-09-12T00:23:26;5.83;;;5.30;;
42194;SDS011;27863;49.440;11.102;2022-09-12T00:26:27;5.07;;;4.67;;
42194;SDS011;27863;49.440;11.102;2022-09-12T00:29:28;5.70;;;5.13;;
42194;SDS011;27863;49.440;11.102;2022-09-12T00:32:29;9.07;;;5.40;;
42194;SDS011;27863;49.440;11.102;2022-09-12T00:35:30;5.40;;;5.00;;
42194;SDS011;27863;49.440;11.102;2022-09-12T00:38:30;5.37;;;4.93;;
42194;SDS011;27863;49.440;11.102;2022-09-12T00:41:32;5.70;;;5.30;;
42194;SDS011;27863;49.440;11.102;2022-09-12T00:44:43;5.60;;;5.20;;
42194;SDS011;27863;49.440;11.102;2022-09-12T00:47:45;5.83;;;5.33;;
42194;SDS011;27863;49.440;11.102;2022-09-12T00:50:46;5.70;;;5.30;;
42194;SDS011;27863;49.440;11.102;2022-09-12T00:53:47;5.23;;;4.73;;
42194;SDS011;27863;49.440;11.102;2022-09-12T00:56:49;5.43;;;5.03;;
42194;SDS011;27863;49.440;11.102;2022-09-12T00:59:54;5.40;;;4.93;;
42194;SDS011;27863;49.440;11.102;2022-09-12T01:03:03;5.40;;;4.97;;
42194;SDS011;27863;49.440;11.102;2022-09-12T01:09:11;5.50;;;5.10;;
42194;SDS011;27863;49.440;11.102;2022-09-12T01:12:15;4.30;;;4.00;;
42194;SDS011;27863;49.440;11.102;2022-09-12T01:15:17;6.20;;;5.07;;
42194;SDS011;27863;49.440;11.102;2022-09-12T01:18:22;5.40;;;4.90;;
42194;SDS011;27863;49.440;11.102;2022-09-12T01:28:24;5.67;;;5.10;;
42194;SDS011;27863;49.440;11.102;2022-09-12T01:31:50;5.13;;;4.63;;
42194;SDS011;27863;49.440;11.102;2022-09-12T01:45:06;4.90;;;4.60;;
42194;SDS011;27863;49.440;11.102;2022-09-12T01:48:28;5.07;;;4.67;;
42194;SDS011;27863;49.440;11.102;2022-09-12T01:51:38;6.40;;;5.47;;
42194;SDS011;27863;49.440;11.102;2022-09-12T01:54:46;5.57;;;5.07;;
42194;SDS011;27863;49.440;11.102;2022-09-12T01:58:08;5.20;;;4.80;;
42194;SDS011;27863;49.440;11.102;2022-09-12T02:01:23;5.00;;;4.60;;
42194;SDS011;27863;49.440;11.102;2022-09-12T02:04:29;5.47;;;4.97;;
42194;SDS011;27863;49.440;11.102;2022-09-12T02:07:41;5.13;;;4.73;;
42194;SDS011;27863;49.440;11.102;2022-09-12T02:10:55;5.37;;;4.97;;
42194;SDS011;27863;49.440;11.102;2022-09-12T02:14:05;5.07;;;4.67;;
42194;SDS011;27863;49.440;11.102;2022-09-12T02:17:12;5.20;;;4.70;;
42194;SDS011;27863;49.440;11.102;2022-09-12T02:20:22;4.77;;;4.37;;
42194;SDS011;27863;49.440;11.102;2022-09-12T02:23:26;5.33;;;4.90;;
42194;SDS011;27863;49.440;11.102;2022-09-12T02:26:30;5.00;;;4.60;;
42194;SDS011;27863;49.440;11.102;2022-09-12T02:29:34;5.50;;;5.10;;
42194;SDS011;27863;49.440;11.102;2022-09-12T02:32:37;5.40;;;4.90;;
42194;SDS011;27863;49.440;11.102;2022-09-12T02:35:45;5.73;;;5.23;;
42194;SDS011;27863;49.440;11.102;2022-09-12T02:38:51;4.80;;;4.50;;
42194;SDS011;27863;49.440;11.102;2022-09-12T02:41:53;5.73;;;5.23;;
42194;SDS011;27863;49.440;11.102;2022-09-12T02:44:56;5.23;;;4.83;;
42194;SDS011;27863;49.440;11.102;2022-09-12T02:48:04;4.83;;;4.47;;
42194;SDS011;27863;49.440;11.102;2022-09-12T02:51:18;5.20;;;4.80;;
42194;SDS011;27863;49.440;11.102;2022-09-12T02:54:19;4.70;;;4.40;;
42194;SDS011;27863;49.440;11.102;2022-09-12T02:57:20;5.33;;;4.83;;
42194;SDS011;27863;49.440;11.102;2022-09-12T03:00:21;6.00;;;5.40;;
42194;SDS011;27863;49.440;11.102;2022-09-12T03:09:57;5.77;;;5.27;;
42194;SDS011;27863;49.440;11.102;2022-09-12T03:13:22;6.57;;;5.97;;
42194;SDS011;27863;49.440;11.102;2022-09-12T03:23:02;6.07;;;5.47;;
42194;SDS011;27863;49.440;11.102;2022-09-12T03:26:08;5.90;;;5.50;;
42194;SDS011;27863;49.440;11.102;2022-09-12T03:29:12;4.97;;;4.57;;
42194;SDS011;27863;49.440;11.102;2022-09-12T03:32:14;5.70;;;5.10;;
42194;SDS011;27863;49.440;11.102;2022-09-12T03:35:15;5.50;;;5.00;;
42194;SDS011;27863;49.440;11.102;2022-09-12T03:38:18;5.97;;;5.47;;
42194;SDS011;27863;49.440;11.102;2022-09-12T03:41:19;5.50;;;5.10;;
42194;SDS011;27863;49.440;11.102;2022-09-12T03:44:20;6.37;;;5.77;;
42194;SDS011;27863;49.440;11.102;2022-09-12T03:47:21;8.13;;;5.10;;
42194;SDS011;27863;49.440;11.102;2022-09-12T03:50:21;5.83;;;5.43;;
42194;SDS011;27863;49.440;11.102;2022-09-12T03:53:22;6.50;;;6.00;;
42194;SDS011;27863;49.440;11.102;2022-09-12T03:56:22;4.93;;;4.53;;
42194;SDS011;27863;49.440;11.102;2022-09-12T03:59:23;6.23;;;5.73;;
42194;SDS011;27863;49.440;11.102;2022-09-12T04:02:23;6.50;;;5.90;;
42194;SDS011;27863;49.440;11.102;2022-09-12T04:05:26;6.30;;;5.80;;
42194;SDS011;27863;49.440;11.102;2022-09-12T04:08:26;6.60;;;6.10;;
42194;SDS011;27863;49.440;11.102;2022-09-12T04:11:27;6.13;;;5.63;;
42194;SDS011;27863;49.440;11.102;2022-09-12T04:14:28;6.87;;;6.37;;
42194;SDS011;27863;49.440;11.102;2022-09-12T04:17:28;5.53;;;5.03;;
42194;SDS011;27863;49.440;11.102;2022-09-12T04:20:29;6.03;;;5.63;;
42194;SDS011;27863;49.440;11.102;2022-09-12T04:23:29;6.87;;;6.07;;
42194;SDS011;27863;49.440;11.102;2022-09-12T04:26:30;6.67;;;5.70;;
42194;SDS011;27863;49.440;11.102;2022-09-12T04:29:32;6.13;;;5.63;;
42194;SDS011;27863;49.440;11.102;2022-09-12T04:32:32;6.60;;;6.00;;
42194;SDS011;27863;49.440;11.102;2022-09-12T04:35:34;6.07;;;5.57;;
42194;SDS011;27863;49.440;11.102;2022-09-12T04:38:35;6.20;;;5.70;;
42194;SDS011;27863;49.440;11.102;2022-09-12T04:41:37;7.40;;;6.67;;
42194;SDS011;27863;49.440;11.102;2022-09-12T04:44:38;5.80;;;5.30;;
42194;SDS011;27863;49.440;11.102;2022-09-12T04:47:38;6.80;;;6.20;;
42194;SDS011;27863;49.440;11.102;2022-09-12T04:50:39;6.00;;;5.57;;
42194;SDS011;27863;49.440;11.102;2022-09-12T04:53:40;6.90;;;5.90;;
42194;SDS011;27863;49.440;11.102;2022-09-12T04:56:42;6.80;;;6.23;;
42194;SDS011;27863;49.440;11.102;2022-09-12T04:59:44;7.07;;;6.53;;
42194;SDS011;27863;49.440;11.102;2022-09-12T05:02:44;6.43;;;5.83;;
42194;SDS011;27863;49.440;11.102;2022-09-12T05:05:46;6.47;;;5.87;;
42194;SDS011;27863;49.440;11.102;2022-09-12T05:08:46;6.03;;;5.53;;
42194;SDS011;27863;49.440;11.102;2022-09-12T05:11:49;5.80;;;5.30;;
42194;SDS011;27863;49.440;11.102;2022-09-12T05:14:49;5.70;;;5.20;;
42194;SDS011;27863;49.440;11.102;2022-09-12T05:17:49;6.67;;;6.13;;
42194;SDS011;27863;49.440;11.102;2022-09-12T05:20:50;6.63;;;6.03;;
42194;SDS011;27863;49.440;11.102;2022-09-12T05:23:51;6.13;;;5.63;;
42194;SDS011;27863;49.440;11.102;2022-09-12T05:26:55;6.80;;;5.93;;
42194;SDS011;27863;49.440;11.102;2022-09-12T05:29:57;6.37;;;5.87;;
42194;SDS011;27863;49.440;11.102;2022-09-12T05:32:58;6.77;;;6.27;;
42194;SDS011;27863;49.440;11.102;2022-09-12T05:36:00;6.67;;;6.03;;
42194;SDS011;27863;49.440;11.102;2022-09-12T05:39:01;8.57;;;6.57;;
42194;SDS011;27863;49.440;11.102;2022-09-12T05:42:03;6.80;;;6.30;;
42194;SDS011;27863;49.440;11.102;2022-09-12T05:45:05;6.17;;;5.57;;
42194;SDS011;27863;49.440;11.102;2022-09-12T05:48:05;6.70;;;6.00;;
42194;SDS011;27863;49.440;11.102;2022-09-12T05:51:07;6.10;;;5.50;;
42194;SDS011;27863;49.440;11.102;2022-09-12T05:54:10;6.87;;;4.93;;
42194;SDS011;27863;49.440;11.102;2022-09-12T05:57:14;4.07;;;3.77;;
42194;SDS011;27863;49.440;11.102;2022-09-12T06:00:15;4.30;;;4.00;;
42194;SDS011;27863;49.440;11.102;2022-09-12T06:03:16;4.93;;;4.53;;
42194;SDS011;27863;49.440;11.102;2022-09-12T06:06:18;5.10;;;4.67;;
42194;SDS011;27863;49.440;11.102;2022-09-12T06:09:20;10.07;;;6.03;;
42194;SDS011;27863;49.440;11.102;2022-09-12T06:12:21;14.67;;;7.63;;
42194;SDS011;27863;49.440;11.102;2022-09-12T06:15:22;9.30;;;7.83;;
42194;SDS011;27863;49.440;11.102;2022-09-12T06:18:23;10.07;;;7.40;;
42194;SDS011;27863;49.440;11.102;2022-09-12T06:21:23;6.63;;;6.03;;
42194;SDS011;27863;49.440;11.102;2022-09-12T06:24:25;7.47;;;6.73;;
42194;SDS011;27863;49.440;11.102;2022-09-12T06:27:26;11.50;;;8.27;;
42194;SDS011;27863;49.440;11.102;2022-09-12T06:30:26;7.35;;;6.75;;
42194;SDS011;27863;49.440;11.102;2022-09-12T06:33:27;7.07;;;6.55;;
42194;SDS011;27863;49.440;11.102;2022-09-12T06:36:29;7.22;;;6.53;;
42194;SDS011;27863;49.440;11.102;2022-09-12T06:39:31;7.72;;;7.07;;
42194;SDS011;27863;49.440;11.102;2022-09-12T06:42:31;7.78;;;7.03;;
42194;SDS011;27863;49.440;11.102;2022-09-12T06:45:32;6.70;;;6.20;;
42194;SDS011;27863;49.440;11.102;2022-09-12T06:48:32;6.72;;;6.22;;
42194;SDS011;27863;49.440;11.102;2022-09-12T06:51:33;8.10;;;7.40;;
42194;SDS011;27863;49.440;11.102;2022-09-12T06:54:36;7.68;;;6.97;;
42194;SDS011;27863;49.440;11.102;2022-09-12T06:57:37;8.02;;;7.32;;
42194;SDS011;27863;49.440;11.102;2022-09-12T07:00:38;7.38;;;6.68;;
42194;SDS011;27863;49.440;11.102;2022-09-12T07:03:39;7.78;;;7.07;;
42194;SDS011;27863;49.440;11.102;2022-09-12T07:06:41;8.35;;;7.65;;
42194;SDS011;27863;49.440;11.102;2022-09-12T07:09:43;7.85;;;7.07;;
42194;SDS011;27863;49.440;11.102;2022-09-12T07:12:43;7.68;;;6.88;;
42194;SDS011;27863;49.440;11.102;2022-09-12T07:15:44;6.63;;;6.00;;
42194;SDS011;27863;49.440;11.102;2022-09-12T07:18:48;6.47;;;5.78;;
42194;SDS011;27863;49.440;11.102;2022-09-12T07:21:53;7.22;;;6.25;;
42194;SDS011;27863;49.440;11.102;2022-09-12T07:24:53;7.32;;;6.72;;
42194;SDS011;27863;49.440;11.102;2022-09-12T07:27:54;6.55;;;5.63;;
42194;SDS011;27863;49.440;11.102;2022-09-12T07:30:55;5.78;;;5.38;;
42194;SDS011;27863;49.440;11.102;2022-09-12T07:33:56;5.53;;;5.07;;
42194;SDS011;27863;49.440;11.102;2022-09-12T07:36:56;6.38;;;5.78;;
42194;SDS011;27863;49.440;11.102;2022-09-12T07:39:57;6.28;;;5.78;;
42194;SDS011;27863;49.440;11.102;2022-09-12T07:42:58;7.13;;;6.50;;
42194;SDS011;27863;49.440;11.102;2022-09-12T07:45:59;9.27;;;5.68;;
42194;SDS011;27863;49.440;11.102;2022-09-12T07:49:00;8.75;;;5.72;;
42194;SDS011;27863;49.440;11.102;2022-09-12T07:52:01;6.35;;;5.75;;
42194;SDS011;27863;49.440;11.102;2022-09-12T07:55:02;6.65;;;6.05;;
42194;SDS011;27863;49.440;11.102;2022-09-12T07:58:02;7.18;;;5.88;;
42194;SDS011;27863;49.440;11.102;2022-09-12T08:01:07;6.68;;;6.20;;
42194;SDS011;27863;49.440;11.102;2022-09-12T08:04:15;6.18;;;5.63;;
42194;SDS011;27863;49.440;11.102;2022-09-12T08:07:16;6.97;;;6.53;;
42194;SDS011;27863;49.440;11.102;2022-09-12T08:10:18;6.80;;;6.40;;
42194;SDS011;27863;49.440;11.102;2022-09-12T08:13:18;7.93;;;7.43;;
42194;SDS011;27863;49.440;11.102;2022-09-12T08:16:20;8.00;;;7.43;;
42194;SDS011;27863;49.440;11.102;2022-09-12T08:19:21;6.75;;;6.30;;
42194;SDS011;27863;49.440;11.102;2022-09-12T08:22:22;6.57;;;6.18;;
42194;SDS011;27863;49.440;11.102;2022-09-12T08:25:23;8.40;;;7.65;;
42194;SDS011;27863;49.440;11.102;2022-09-12T08:28:24;7.07;;;6.57;;
42194;SDS011;27863;49.440;11.102;2022-09-12T08:31:26;7.45;;;6.82;;
42194;SDS011;27863;49.440;11.102;2022-09-12T08:34:27;7.13;;;6.63;;
42194;SDS011;27863;49.440;11.102;2022-09-12T08:37:30;6.50;;;6.05;;
42194;SDS011;27863;49.440;11.102;2022-09-12T08:40:31;7.40;;;6.90;;
42194;SDS011;27863;49.440;11.102;2022-09-12T08:50:18;6.30;;;5.90;;
42194;SDS011;27863;49.440;11.102;2022-09-12T08:53:20;7.53;;;7.03;;
42194;SDS011;27863;49.440;11.102;2022-09-12T08:56:23;6.10;;;5.60;;
42194;SDS011;27863;49.440;11.102;2022-09-12T08:59:24;6.43;;;5.85;;
42194;SDS011;27863;49.440;11.102;2022-09-12T09:15:40;7.15;;;5.50;;
42194;SDS011;27863;49.440;11.102;2022-09-12T09:19:00;5.63;;;5.13;;
42194;SDS011;27863;49.440;11.102;2022-09-12T09:22:06;5.95;;;5.53;;
42194;SDS011;27863;49.440;11.102;2022-09-12T09:25:14;6.18;;;5.68;;
42194;SDS011;27863;49.440;11.102;2022-09-12T09:31:31;5.82;;;4.97;;
42194;SDS011;27863;49.440;11.102;2022-09-12T09:34:34;4.53;;;4.22;;
42194;SDS011;27863;49.440;11.102;2022-09-12T09:40:47;4.68;;;4.38;;
42194;SDS011;27863;49.440;11.102;2022-09-12T09:43:52;4.18;;;3.80;;
42194;SDS011;27863;49.440;11.102;2022-09-12T09:46:54;4.38;;;3.97;;
42194;SDS011;27863;49.440;11.102;2022-09-12T09:49:57;4.00;;;3.67;;
42194;SDS011;27863;49.440;11.102;2022-09-12T09:52:58;4.82;;;4.43;;
42194;SDS011;27863;49.440;11.102;2022-09-12T09:56:01;4.25;;;3.95;;
42194;SDS011;27863;49.440;11.102;2022-09-12T09:59:15;4.20;;;3.90;;
42194;SDS011;27863;49.440;11.102;2022-09-12T10:02:19;3.60;;;3.30;;
42194;SDS011;27863;49.440;11.102;2022-09-12T10:05:22;4.05;;;3.63;;
42194;SDS011;27863;49.440;11.102;2022-09-12T10:08:24;6.95;;;4.10;;
42194;SDS011;27863;49.440;11.102;2022-09-12T10:11:34;4.75;;;4.20;;
42194;SDS011;27863;49.440;11.102;2022-09-12T10:14:37;4.25;;;3.80;;
42194;SDS011;27863;49.440;11.102;2022-09-12T10:17:41;8.73;;;7.97;;
42194;SDS011;27863;49.440;11.102;2022-09-12T10:20:43;7.32;;;6.05;;
42194;SDS011;27863;49.440;11.102;2022-09-12T10:23:44;4.82;;;4.40;;
42194;SDS011;27863;49.440;11.102;2022-09-12T10:26:48;5.15;;;4.22;;
42194;SDS011;27863;49.440;11.102;2022-09-12T10:29:53;4.43;;;4.13;;
42194;SDS011;27863;49.440;11.102;2022-09-12T10:32:58;4.32;;;3.92;;
42194;SDS011;27863;49.440;11.102;2022-09-12T10:36:05;4.72;;;4.25;;
42194;SDS011;27863;49.440;11.102;2022-09-12T10:39:11;7.18;;;6.57;;
42194;SDS011;27863;49.440;11.102;2022-09-12T10:42:16;8.30;;;6.28;;
42194;SDS011;27863;49.440;11.102;2022-09-12T10:48:29;5.80;;;4.30;;
42194;SDS011;27863;49.440;11.102;2022-09-12T10:51:30;3.63;;;3.33;;
42194;SDS011;27863;49.440;11.102;2022-09-12T10:54:32;5.47;;;5.00;;
42194;SDS011;27863;49.440;11.102;2022-09-12T11:00:46;4.15;;;3.85;;
42194;SDS011;27863;49.440;11.102;2022-09-12T11:10:37;4.25;;;3.85;;
42194;SDS011;27863;49.440;11.102;2022-09-12T11:17:24;4.78;;;3.33;;
42194;SDS011;27863;49.440;11.102;2022-09-12T11:30:35;3.75;;;3.45;;
42194;SDS011;27863;49.440;11.102;2022-09-12T11:34:15;3.58;;;3.28;;
42194;SDS011;27863;49.440;11.102;2022-09-12T11:41:00;5.07;;;3.50;;
42194;SDS011;27863;49.440;11.102;2022-09-12T11:44:15;3.40;;;3.20;;
42194;SDS011;27863;49.440;11.102;2022-09-12T11:47:19;4.32;;;3.97;;
42194;SDS011;27863;49.440;11.102;2022-09-12T11:50:26;3.92;;;3.58;;
42194;SDS011;27863;49.440;11.102;2022-09-12T11:53:30;3.85;;;3.50;;
42194;SDS011;27863;49.440;11.102;2022-09-12T11:56:35;5.28;;;3.65;;
42194;SDS011;27863;49.440;11.102;2022-09-12T11:59:43;4.30;;;3.83;;
42194;SDS011;27863;49.440;11.102;2022-09-12T12:09:27;3.95;;;3.65;;
42194;SDS011;27863;49.440;11.102;2022-09-12T12:12:29;3.70;;;3.40;;
42194;SDS011;27863;49.440;11.102;2022-09-12T12:15:30;3.50;;;3.17;;
42194;SDS011;27863;49.440;11.102;2022-09-12T12:18:31;3.80;;;3.50;;
42194;SDS011;27863;49.440;11.102;2022-09-12T12:21:44;4.32;;;3.85;;
42194;SDS011;27863;49.440;11.102;2022-09-12T12:25:01;6.28;;;3.55;;
42194;SDS011;27863;49.440;11.102;2022-09-12T12:28:11;3.97;;;3.58;;
42194;SDS011;27863;49.440;11.102;2022-09-12T12:35:10;4.72;;;4.38;;
42194;SDS011;27863;49.440;11.102;2022-09-12T12:38:40;3.58;;;3.22;;
42194;SDS011;27863;49.440;11.102;2022-09-12T12:41:43;3.92;;;3.58;;
42194;SDS011;27863;49.440;11.102;2022-09-12T12:47:50;6.60;;;6.05;;
42194;SDS011;27863;49.440;11.102;2022-09-12T12:50:53;5.47;;;3.95;;
42194;SDS011;27863;49.440;11.102;2022-09-12T12:53:54;3.97;;;3.75;;
42194;SDS011;27863;49.440;11.102;2022-09-12T12:56:59;3.30;;;3.10;;
42194;SDS011;27863;49.440;11.102;2022-09-12T13:00:06;5.28;;;4.88;;
42194;SDS011;27863;49.440;11.102;2022-09-12T13:03:30;5.18;;;3.65;;
42194;SDS011;27863;49.440;11.102;2022-09-12T13:12:35;5.65;;;3.22;;
42194;SDS011;27863;49.440;11.102;2022-09-12T13:18:46;4.55;;;3.55;;
42194;SDS011;27863;49.440;11.102;2022-09-12T13:22:02;3.35;;;3.15;;
42194;SDS011;27863;49.440;11.102;2022-09-12T13:28:37;6.40;;;3.22;;
42194;SDS011;27863;49.440;11.102;2022-09-12T13:31:38;3.45;;;3.15;;
42194;SDS011;27863;49.440;11.102;2022-09-12T13:34:50;2.95;;;2.75;;
42194;SDS011;27863;49.440;11.102;2022-09-12T13:38:09;3.22;;;3.03;;
42194;SDS011;27863;49.440;11.102;2022-09-12T13:41:21;3.00;;;2.80;;
42194;SDS011;27863;49.440;11.102;2022-09-12T13:44:43;3.50;;;3.28;;
42194;SDS011;27863;49.440;11.102;2022-09-12T13:47:56;3.97;;;3.20;;
42194;SDS011;27863;49.440;11.102;2022-09-12T13:51:00;5.30;;;3.40;;
42194;SDS011;27863;49.440;11.102;2022-09-12T13:54:02;3.95;;;3.10;;
42194;SDS011;27863;49.440;11.102;2022-09-12T13:57:04;3.92;;;3.63;;
42194;SDS011;27863;49.440;11.102;2022-09-12T14:00:13;3.63;;;3.33;;
42194;SDS011;27863;49.440;11.102;2022-09-12T14:03:41;3.28;;;3.08;;
42194;SDS011;27863;49.440;11.102;2022-09-12T14:07:09;3.60;;;2.63;;
42194;SDS011;27863;49.440;11.102;2022-09-12T14:10:37;3.53;;;2.80;;
42194;SDS011;27863;49.440;11.102;2022-09-12T14:13:39;3.17;;;2.90;;
42194;SDS011;27863;49.440;11.102;2022-09-12T14:16:40;3.20;;;2.90;;
42194;SDS011;27863;49.440;11.102;2022-09-12T14:19:41;3.30;;;3.10;;
42194;SDS011;27863;49.440;11.102;2022-09-12T14:22:43;3.42;;;3.03;;
42194;SDS011;27863;49.440;11.102;2022-09-12T14:25:44;5.07;;;2.95;;
42194;SDS011;27863;49.440;11.102;2022-09-12T14:28:50;3.90;;;2.65;;
42194;SDS011;27863;49.440;11.102;2022-09-12T14:32:01;2.70;;;2.50;;
42194;SDS011;27863;49.440;11.102;2022-09-12T14:35:04;2.90;;;2.70;;
42194;SDS011;27863;49.440;11.102;2022-09-12T14:38:06;3.03;;;2.80;;
42194;SDS011;27863;49.440;11.102;2022-09-12T14:41:09;3.22;;;2.92;;
42194;SDS011;27863;49.440;11.102;2022-09-12T14:44:23;3.40;;;3.03;;
42194;SDS011;27863;49.440;11.102;2022-09-12T14:47:25;4.35;;;3.15;;
42194;SDS011;27863;49.440;11.102;2022-09-12T14:50:28;3.30;;;3.10;;
42194;SDS011;27863;49.440;11.102;2022-09-12T14:53:34;4.28;;;2.95;;
42194;SDS011;27863;49.440;11.102;2022-09-12T14:56:52;2.90;;;2.70;;
42194;SDS011;27863;49.440;11.102;2022-09-12T15:06:48;3.10;;;2.63;;
42194;SDS011;27863;49.440;11.102;2022-09-12T15:09:49;2.90;;;2.70;;
42194;SDS011;27863;49.440;11.102;2022-09-12T15:13:02;4.00;;;3.17;;
42194;SDS011;27863;49.440;11.102;2022-09-12T15:16:03;3.80;;;3.50;;
42194;SDS011;27863;49.440;11.102;2022-09-12T15:19:04;2.88;;;2.67;;
42194;SDS011;27863;49.440;11.102;2022-09-12T15:22:05;3.28;;;3.08;;
42194;SDS011;27863;49.440;11.102;2022-09-12T15:25:05;6.95;;;3.30;;
42194;SDS011;27863;49.440;11.102;2022-09-12T15:28:40;3.38;;;3.17;;
42194;SDS011;27863;49.440;11.102;2022-09-12T15:31:33;3.40;;;3.00;;
42194;SDS011;27863;49.440;11.102;2022-09-12T15:34:34;4.57;;;4.00;;
42194;SDS011;27863;49.440;11.102;2022-09-12T15:37:34;4.05;;;3.75;;
42194;SDS011;27863;49.440;11.102;2022-09-12T15:40:35;6.03;;;3.45;;
42194;SDS011;27863;49.440;11.102;2022-09-12T15:43:35;8.60;;;4.07;;
42194;SDS011;27863;49.440;11.102;2022-09-12T15:46:36;4.85;;;3.65;;
42194;SDS011;27863;49.440;11.102;2022-09-12T15:49:37;3.42;;;3.03;;
42194;SDS011;27863;49.440;11.102;2022-09-12T15:52:37;4.82;;;2.95;;
42194;SDS011;27863;49.440;11.102;2022-09-12T15:55:38;5.25;;;3.05;;
42194;SDS011;27863;49.440;11.102;2022-09-12T15:58:39;3.88;;;2.90;;
42194;SDS011;27863;49.440;11.102;2022-09-12T16:01:40;8.98;;;3.17;;
42194;SDS011;27863;49.440;11.102;2022-09-12T16:04:40;3.70;;;3.40;;
42194;SDS011;27863;49.440;11.102;2022-09-12T16:07:41;7.43;;;3.50;;
42194;SDS011;27863;49.440;11.102;2022-09-12T16:10:51;6.05;;;3.42;;
42194;SDS011;27863;49.440;11.102;2022-09-12T16:13:53;6.63;;;3.47;;
42194;SDS011;27863;49.440;11.102;2022-09-12T16:16:55;3.55;;;3.28;;
42194;SDS011;27863;49.440;11.102;2022-09-12T16:19:56;5.93;;;3.80;;
42194;SDS011;27863;49.440;11.102;2022-09-12T16:22:59;5.78;;;3.55;;
42194;SDS011;27863;49.440;11.102;2022-09-12T16:26:02;6.63;;;3.72;;
42194;SDS011;27863;49.440;11.102;2022-09-12T16:29:04;4.57;;;3.47;;
42194;SDS011;27863;49.440;11.102;2022-09-12T16:32:04;4.30;;;3.95;;
42194;SDS011;27863;49.440;11.102;2022-09-12T16:35:05;3.28;;;3.08;;
42194;SDS011;27863;49.440;11.102;2022-09-12T16:38:06;3.75;;;3.17;;
42194;SDS011;27863;49.440;11.102;2022-09-12T16:41:07;3.88;;;3.58;;
42194;SDS011;27863;49.440;11.102;2022-09-12T16:44:08;3.33;;;3.13;;
42194;SDS011;27863;49.440;11.102;2022-09-12T16:47:09;3.15;;;2.95;;
42194;SDS011;27863;49.440;11.102;2022-09-12T16:50:11;3.08;;;2.85;;
42194;SDS011;27863;49.440;11.102;2022-09-12T16:53:11;3.80;;;3.50;;
42194;SDS011;27863;49.440;11.102;2022-09-12T16:56:12;3.45;;;3.03;;
42194;SDS011;27863;49.440;11.102;2022-09-12T16:59:12;3.55;;;2.90;;
42194;SDS011;27863;49.440;11.102;2022-09-12T17:02:15;4.10;;;3.70;;
42194;SDS011;27863;49.440;11.102;2022-09-12T17:05:16;3.08;;;2.88;;
42194;SDS011;27863;49.440;11.102;2022-09-12T17:08:16;3.67;;;3.38;;
42194;SDS011;27863;49.440;11.102;2022-09-12T17:11:21;4.85;;;4.40;;
42194;SDS011;27863;49.440;11.102;2022-09-12T17:14:23;3.92;;;3.42;;
42194;SDS011;27863;49.440;11.102;2022-09-12T17:17:24;3.88;;;3.58;;
42194;SDS011;27863;49.440;11.102;2022-09-12T17:20:25;3.55;;;3.25;;
42194;SDS011;27863;49.440;11.102;2022-09-12T17:23:26;3.67;;;3.30;;
42194;SDS011;27863;49.440;11.102;2022-09-12T17:26:26;4.28;;;3.42;;
42194;SDS011;27863;49.440;11.102;2022-09-12T17:29:27;4.82;;;4.43;;
42194;SDS011;27863;49.440;11.102;2022-09-12T17:32:28;3.75;;;3.45;;
42194;SDS011;27863;49.440;11.102;2022-09-12T17:35:35;4.20;;;3.80;;
42194;SDS011;27863;49.440;11.102;2022-09-12T17:38:37;4.45;;;4.05;;
42194;SDS011;27863;49.440;11.102;2022-09-12T17:41:41;4.40;;;4.05;;
42194;SDS011;27863;49.440;11.102;2022-09-12T17:44:43;4.43;;;4.03;;
42194;SDS011;27863;49.440;11.102;2022-09-12T17:47:45;4.72;;;4.22;;
42194;SDS011;27863;49.440;11.102;2022-09-12T17:50:46;3.80;;;3.50;;
42194;SDS011;27863;49.440;11.102;2022-09-12T17:53:47;3.78;;;3.45;;
42194;SDS011;27863;49.440;11.102;2022-09-12T17:56:47;4.07;;;3.67;;
42194;SDS011;27863;49.440;11.102;2022-09-12T17:59:49;4.53;;;4.18;;
42194;SDS011;27863;49.440;11.102;2022-09-12T18:02:50;4.60;;;4.30;;
42194;SDS011;27863;49.440;11.102;2022-09-12T18:05:52;3.92;;;3.60;;
42194;SDS011;27863;49.440;11.102;2022-09-12T18:08:54;4.90;;;4.50;;
42194;SDS011;27863;49.440;11.102;2022-09-12T18:11:54;4.00;;;3.55;;
42194;SDS011;27863;49.440;11.102;2022-09-12T18:14:55;8.05;;;4.47;;
42194;SDS011;27863;49.440;11.102;2022-09-12T18:17:55;4.93;;;4.53;;
42194;SDS011;27863;49.440;11.102;2022-09-12T18:20:56;4.63;;;4.28;;
42194;SDS011;27863;49.440;11.102;2022-09-12T18:23:57;4.60;;;4.28;;
42194;SDS011;27863;49.440;11.102;2022-09-12T18:26:58;4.22;;;3.83;;
42194;SDS011;27863;49.440;11.102;2022-09-12T18:29:58;4.93;;;4.53;;
42194;SDS011;27863;49.440;11.102;2022-09-12T18:32:59;5.35;;;4.88;;
42194;SDS011;27863;49.440;11.102;2022-09-12T18:36:03;4.78;;;4.47;;
42194;SDS011;27863;49.440;11.102;2022-09-12T18:39:04;5.70;;;5.25;;
42194;SDS011;27863;49.440;11.102;2022-09-12T18:42:05;5.25;;;4.85;;
42194;SDS011;27863;49.440;11.102;2022-09-12T18:45:06;4.57;;;4.28;;
42194;SDS011;27863;49.440;11.102;2022-09-12T18:48:08;4.90;;;4.50;;
42194;SDS011;27863;49.440;11.102;2022-09-12T18:51:13;5.03;;;4.63;;
42194;SDS011;27863;49.440;11.102;2022-09-12T18:54:14;4.78;;;4.38;;
42194;SDS011;27863;49.440;11.102;2022-09-12T18:57:14;4.55;;;4.15;;
42194;SDS011;27863;49.440;11.102;2022-09-12T19:00:15;4.22;;;3.92;;
42194;SDS011;27863;49.440;11.102;2022-09-12T19:03:19;4.80;;;4.40;;
42194;SDS011;27863;49.440;11.102;2022-09-12T19:06:23;4.13;;;3.83;;
42194;SDS011;27863;49.440;11.102;2022-09-12T19:09:25;4.68;;;4.28;;
42194;SDS011;27863;49.440;11.102;2022-09-12T19:12:25;4.97;;;4.57;;
42194;SDS011;27863;49.440;11.102;2022-09-12T19:15:26;5.43;;;5.03;;
42194;SDS011;27863;49.440;11.102;2022-09-12T19:18:26;5.72;;;5.22;;
42194;SDS011;27863;49.440;11.102;2022-09-12T19:21:28;5.60;;;5.20;;
42194;SDS011;27863;49.440;11.102;2022-09-12T19:24:30;8.32;;;5.53;;
42194;SDS011;27863;49.440;11.102;2022-09-12T19:27:32;6.10;;;5.60;;
42194;SDS011;27863;49.440;11.102;2022-09-12T19:30:33;6.05;;;5.55;;
42194;SDS011;27863;49.440;11.102;2022-09-12T19:33:35;6.38;;;5.88;;
42194;SDS011;27863;49.440;11.102;2022-09-12T19:36:37;6.57;;;6.03;;
42194;SDS011;27863;49.440;11.102;2022-09-12T19:39:38;6.15;;;5.65;;
42194;SDS011;27863;49.440;11.102;2022-09-12T19:42:42;6.03;;;5.47;;
42194;SDS011;27863;49.440;11.102;2022-09-12T19:45:45;5.13;;;4.72;;
42194;SDS011;27863;49.440;11.102;2022-09-12T19:48:48;5.28;;;4.88;;
42194;SDS011;27863;49.440;11.102;2022-09-12T19:51:49;6.68;;;6.13;;
42194;SDS011;27863;49.440;11.102;2022-09-12T19:54:50;5.07;;;4.55;;
42194;SDS011;27863;49.440;11.102;2022-09-12T19:57:52;5.72;;;5.22;;
42194;SDS011;27863;49.440;11.102;2022-09-12T20:00:54;5.05;;;4.55;;
42194;SDS011;27863;49.440;11.102;2022-09-12T20:03:55;5.90;;;5.50;;
42194;SDS011;27863;49.440;11.102;2022-09-12T20:06:57;9.38;;;8.27;;
42194;SDS011;27863;49.440;11.102;2022-09-12T20:09:58;5.30;;;4.90;;
42194;SDS011;27863;49.440;11.102;2022-09-12T20:12:59;6.18;;;5.68;;